Time;durP1;ratioP1;P1;durP2;ratioP2;P2;SDS_P1;SDS_P2;PMS_P1;PMS_P2;Temp;Humidity;BMP_temperature;BMP_pressure;BME280_temperature;BME280_humidity;BME280_pressure;Samples;Min_cycle;Max_cycle;Signal;HPM_P1;HPM_P2
2021/03/07 00:01:47;;;;;;;104.78;50.45;;;;;;;;;;5076391;28;20021;-59
2021/03/07 00:04:13;;;;;;;103.28;49.50;;;;;;;;;;5076302;28;20023;-58
2021/03/07 00:06:38;;;;;;;103.57;51.42;;;;;;;;;;5058545;28;20033;-59
2021/03/07 00:09:05;;;;;;;106.53;48.83;;;;;;;;;;5076162;28;20019;-58
2021/03/07 00:11:31;;;;;;;94.70;45.00;;;;;;;;;;5076200;28;20020;-58
2021/03/07 00:13:56;;;;;;;91.78;43.22;;;;;;;;;;5076217;28;20435;-58
2021/03/07 00:16:22;;;;;;;88.68;41.90;;;;;;;;;;5058273;28;20085;-59
2021/03/07 00:18:47;;;;;;;89.07;42.53;;;;;;;;;;5058301;28;20071;-58
2021/03/07 00:21:15;;;;;;;90.55;43.22;;;;;;;;;;5075950;28;20058;-59
2021/03/07 00:23:40;;;;;;;90.57;42.20;;;;;;;;;;5076008;28;20063;-59
2021/03/07 00:26:06;;;;;;;86.30;41.30;;;;;;;;;;5075951;28;20501;-59
2021/03/07 00:28:32;;;;;;;86.07;41.17;;;;;;;;;;5075947;28;20425;-59
2021/03/07 00:30:58;;;;;;;84.88;41.75;;;;;;;;;;5057891;28;20544;-59
2021/03/07 00:33:24;;;;;;;85.30;39.95;;;;;;;;;;5076000;28;20032;-58
2021/03/07 00:35:49;;;;;;;88.88;40.60;;;;;;;;;;5075811;28;20063;-58
2021/03/07 00:38:15;;;;;;;88.95;40.60;;;;;;;;;;5075765;28;20039;-58
2021/03/07 00:40:45;;;;;;;82.55;39.70;;;;;;;;;;5075749;28;20028;-58
2021/03/07 00:43:12;;;;;;;82.65;38.83;;;;;;;;;;5075418;28;20028;-58
2021/03/07 00:45:38;;;;;;;82.25;39.08;;;;;;;;;;5057675;28;20502;-58
2021/03/07 00:48:04;;;;;;;82.40;38.25;;;;;;;;;;5057722;28;20039;-58
2021/03/07 00:50:30;;;;;;;87.03;38.35;;;;;;;;;;5075152;28;20044;-59
2021/03/07 00:52:55;;;;;;;77.80;36.45;;;;;;;;;;5075514;28;20029;-58
2021/03/07 00:55:21;;;;;;;83.15;39.10;;;;;;;;;;5075395;28;20024;-58
2021/03/07 00:57:46;;;;;;;88.10;38.30;;;;;;;;;;5074311;28;20028;-59
2021/03/07 01:00:13;;;;;;;78.32;36.33;;;;;;;;;;5075329;28;20078;-58
2021/03/07 01:02:39;;;;;;;80.60;38.03;;;;;;;;;;5057547;28;20080;-58
2021/03/07 01:05:06;;;;;;;74.55;37.00;;;;;;;;;;5075378;28;20040;-59
2021/03/07 01:07:32;;;;;;;75.22;36.85;;;;;;;;;;5057172;28;20027;-59
2021/03/07 01:09:57;;;;;;;81.65;38.17;;;;;;;;;;5075100;28;20025;-59
2021/03/07 01:12:23;;;;;;;76.28;36.45;;;;;;;;;;5075172;28;20104;-59
2021/03/07 01:14:48;;;;;;;80.50;36.15;;;;;;;;;;5075089;28;20459;-58
2021/03/07 01:17:15;;;;;;;80.32;36.97;;;;;;;;;;5075004;28;20036;-59
2021/03/07 01:19:40;;;;;;;78.80;37.00;;;;;;;;;;5057097;28;20467;-58
2021/03/07 01:22:07;;;;;;;77.90;36.53;;;;;;;;;;5074906;28;20074;-59
2021/03/07 01:24:35;;;;;;;74.63;36.15;;;;;;;;;;5074957;28;20494;-59
2021/03/07 01:27:00;;;;;;;78.53;36.90;;;;;;;;;;5074732;28;20021;-58
2021/03/07 01:29:28;;;;;;;76.03;35.20;;;;;;;;;;5074748;28;20024;-58
2021/03/07 01:31:53;;;;;;;77.40;34.63;;;;;;;;;;5074792;28;20032;-58
2021/03/07 01:34:19;;;;;;;75.70;34.42;;;;;;;;;;5074813;28;20028;-58
2021/03/07 01:36:45;;;;;;;79.38;36.05;;;;;;;;;;5074505;28;20032;-59
2021/03/07 01:39:12;;;;;;;82.15;34.55;;;;;;;;;;5056704;28;20394;-59
2021/03/07 01:41:38;;;;;;;76.80;34.08;;;;;;;;;;5056738;28;20032;-58
2021/03/07 01:44:03;;;;;;;71.18;33.88;;;;;;;;;;5074539;28;20375;-59
2021/03/07 01:46:29;;;;;;;72.95;34.75;;;;;;;;;;5074366;28;20078;-59
2021/03/07 01:48:54;;;;;;;78.85;34.42;;;;;;;;;;5056316;28;20475;-61
2021/03/07 01:51:21;;;;;;;73.30;34.55;;;;;;;;;;5074633;28;20036;-59
2021/03/07 01:53:47;;;;;;;70.55;33.58;;;;;;;;;;5074355;28;20433;-59
2021/03/07 01:56:13;;;;;;;72.32;33.13;;;;;;;;;;5074293;28;20085;-58
2021/03/07 01:58:41;;;;;;;69.57;32.15;;;;;;;;;;5074237;28;20378;-59
2021/03/07 02:01:08;;;;;;;69.78;32.83;;;;;;;;;;5074089;28;20021;-59
2021/03/07 02:03:34;;;;;;;68.05;32.83;;;;;;;;;;5074144;28;20438;-58
2021/03/07 02:05:59;;;;;;;67.07;32.05;;;;;;;;;;5073935;28;20024;-58
2021/03/07 02:08:26;;;;;;;67.93;32.38;;;;;;;;;;5073717;28;20017;-58
2021/03/07 02:10:54;;;;;;;70.22;32.40;;;;;;;;;;5073886;28;20531;-58
2021/03/07 02:13:35;;;;;;;65.50;30.35;;;;;;;;;;5073820;28;20016;-58
2021/03/07 02:16:03;;;;;;;70.13;32.30;;;;;;;;;;5073795;28;20478;-58
2021/03/07 02:18:29;;;;;;;64.50;30.63;;;;;;;;;;5073803;28;20024;-58
2021/03/07 02:20:56;;;;;;;64.95;30.83;;;;;;;;;;5055853;28;20062;-59
2021/03/07 02:23:23;;;;;;;64.43;30.50;;;;;;;;;;5073770;28;20052;-59
2021/03/07 02:25:49;;;;;;;63.13;30.20;;;;;;;;;;5073715;28;20029;-59
2021/03/07 02:28:16;;;;;;;65.22;30.98;;;;;;;;;;5073571;28;20390;-59
2021/03/07 02:30:41;;;;;;;66.28;30.00;;;;;;;;;;5055638;28;20043;-58
2021/03/07 02:33:14;;;;;;;63.35;30.42;;;;;;;;;;5073570;28;20429;-59
2021/03/07 02:35:43;;;;;;;69.35;30.63;;;;;;;;;;5055618;28;20111;-59
2021/03/07 02:38:10;;;;;;;65.60;30.13;;;;;;;;;;5073423;28;20028;-58
2021/03/07 02:40:36;;;;;;;63.97;29.67;;;;;;;;;;5055396;28;20032;-59
2021/03/07 02:43:03;;;;;;;60.00;29.92;;;;;;;;;;5055804;28;20012;-59
2021/03/07 02:45:29;;;;;;;61.10;28.83;;;;;;;;;;5073459;28;20487;-58
2021/03/07 02:47:55;;;;;;;60.22;29.58;;;;;;;;;;5073400;28;20055;-59
2021/03/07 02:50:22;;;;;;;60.97;28.60;;;;;;;;;;5072824;28;20047;-59
2021/03/07 02:52:51;;;;;;;62.08;28.95;;;;;;;;;;5055501;28;20123;-59
2021/03/07 02:55:18;;;;;;;62.10;28.15;;;;;;;;;;5073373;28;20039;-59
2021/03/07 02:57:45;;;;;;;65.18;29.23;;;;;;;;;;5073303;28;20101;-59
2021/03/07 03:00:11;;;;;;;57.92;27.48;;;;;;;;;;5073203;28;20044;-59
2021/03/07 03:02:38;;;;;;;58.10;27.58;;;;;;;;;;5073259;28;20016;-58
2021/03/07 03:05:07;;;;;;;63.03;28.35;;;;;;;;;;5073210;28;20397;-58
2021/03/07 03:07:33;;;;;;;57.33;26.77;;;;;;;;;;5073154;28;20510;-58
2021/03/07 03:10:00;;;;;;;54.17;26.27;;;;;;;;;;5073105;28;20036;-58
2021/03/07 03:12:28;;;;;;;58.17;26.13;;;;;;;;;;5073183;28;20021;-58
2021/03/07 03:14:54;;;;;;;56.47;26.08;;;;;;;;;;5073129;28;20033;-58
2021/03/07 03:17:20;;;;;;;53.72;25.77;;;;;;;;;;5073113;28;20027;-59
2021/03/07 03:19:53;;;;;;;48.30;25.58;;;;;;;;;;5073464;28;20479;-59
2021/03/07 03:22:18;;;;;;;55.80;25.63;;;;;;;;;;5077247;28;20430;-59
2021/03/07 03:24:44;;;;;;;53.92;25.30;;;;;;;;;;5059346;28;20074;-59
2021/03/07 03:27:11;;;;;;;50.67;24.20;;;;;;;;;;5076958;28;20033;-59
2021/03/07 03:29:38;;;;;;;48.88;24.38;;;;;;;;;;5077036;28;20074;-58
2021/03/07 03:32:03;;;;;;;51.58;25.30;;;;;;;;;;5076931;28;20040;-59
2021/03/07 03:34:29;;;;;;;52.08;25.50;;;;;;;;;;5076856;28;20368;-59
2021/03/07 03:36:54;;;;;;;51.67;24.17;;;;;;;;;;5076768;28;20032;-58
2021/03/07 03:39:21;;;;;;;48.83;23.25;;;;;;;;;;5076911;28;20073;-58
2021/03/07 03:41:51;;;;;;;48.40;23.77;;;;;;;;;;5076655;28;20036;-59
2021/03/07 03:44:19;;;;;;;44.22;21.33;;;;;;;;;;5076588;28;20064;-59
2021/03/07 03:46:46;;;;;;;39.22;16.95;;;;;;;;;;5076798;28;20035;-58
2021/03/07 03:49:17;;;;;;;34.55;16.70;;;;;;;;;;5076379;28;20390;-59
2021/03/07 03:51:44;;;;;;;36.10;16.23;;;;;;;;;;5076830;28;20085;-58
2021/03/07 03:54:11;;;;;;;33.40;16.50;;;;;;;;;;5076483;28;20437;-59
2021/03/07 03:56:36;;;;;;;39.13;18.25;;;;;;;;;;5076492;28;20020;-58
2021/03/07 03:59:03;;;;;;;28.88;15.30;;;;;;;;;;5076513;28;20020;-58
2021/03/07 04:01:29;;;;;;;38.42;18.67;;;;;;;;;;5076304;28;20028;-58
2021/03/07 04:03:55;;;;;;;32.13;15.38;;;;;;;;;;5076524;28;20017;-58
2021/03/07 04:06:29;;;;;;;42.20;20.45;;;;;;;;;;5076322;28;20027;-58
2021/03/07 04:08:55;;;;;;;42.00;20.77;;;;;;;;;;5076298;28;20548;-58
2021/03/07 04:11:23;;;;;;;39.65;19.13;;;;;;;;;;5076236;28;20028;-58
2021/03/07 04:13:50;;;;;;;35.10;17.10;;;;;;;;;;5076377;28;20044;-58
2021/03/07 04:16:18;;;;;;;34.00;16.50;;;;;;;;;;5076265;28;20017;-58
2021/03/07 04:18:44;;;;;;;42.90;20.35;;;;;;;;;;5076322;28;20032;-58
2021/03/07 04:21:10;;;;;;;31.88;15.95;;;;;;;;;;5058123;28;20432;-58
2021/03/07 04:23:35;;;;;;;30.17;14.68;;;;;;;;;;5076237;28;20024;-58
2021/03/07 04:26:01;;;;;;;29.63;15.07;;;;;;;;;;5076129;28;20035;-58
2021/03/07 04:28:28;;;;;;;31.55;16.98;;;;;;;;;;5075978;28;20035;-58
2021/03/07 04:30:53;;;;;;;32.03;15.73;;;;;;;;;;5075811;28;20031;-58
2021/03/07 04:33:19;;;;;;;28.98;14.80;;;;;;;;;;5075916;28;20398;-58
2021/03/07 04:35:45;;;;;;;30.20;14.43;;;;;;;;;;5075879;28;20063;-58
2021/03/07 04:38:11;;;;;;;34.05;15.20;;;;;;;;;;5075927;28;20036;-58
2021/03/07 04:40:37;;;;;;;27.52;13.23;;;;;;;;;;5075772;28;20027;-58
2021/03/07 04:43:03;;;;;;;24.50;12.35;;;;;;;;;;5075762;28;20032;-58
2021/03/07 04:45:29;;;;;;;27.92;14.35;;;;;;;;;;5075612;28;20023;-58
2021/03/07 04:47:55;;;;;;;27.52;13.40;;;;;;;;;;5075655;28;20029;-58
2021/03/07 04:50:20;;;;;;;23.05;12.48;;;;;;;;;;5075176;28;20411;-59
2021/03/07 04:52:46;;;;;;;24.05;13.75;;;;;;;;;;5057903;28;20399;-58
2021/03/07 04:55:12;;;;;;;23.25;12.43;;;;;;;;;;5075710;28;20025;-58
2021/03/07 04:57:38;;;;;;;24.38;12.93;;;;;;;;;;5075692;28;20032;-58
2021/03/07 05:00:05;;;;;;;23.60;11.00;;;;;;;;;;5075488;28;20514;-58
2021/03/07 05:02:31;;;;;;;23.33;12.85;;;;;;;;;;5075459;28;20372;-58
2021/03/07 05:04:56;;;;;;;19.35;11.82;;;;;;;;;;5075447;28;20031;-58
2021/03/07 05:07:23;;;;;;;25.05;12.13;;;;;;;;;;5075465;28;20020;-58
2021/03/07 05:09:48;;;;;;;23.60;12.38;;;;;;;;;;5075456;28;20015;-58
2021/03/07 05:12:14;;;;;;;21.00;11.88;;;;;;;;;;5075312;28;20450;-58
2021/03/07 05:14:39;;;;;;;23.02;11.43;;;;;;;;;;5075182;28;20058;-59
2021/03/07 05:17:05;;;;;;;17.50;9.70;;;;;;;;;;5075452;28;20036;-58
2021/03/07 05:19:30;;;;;;;18.35;10.20;;;;;;;;;;5057349;28;20055;-58
2021/03/07 05:21:56;;;;;;;20.40;11.20;;;;;;;;;;5074989;28;20032;-58
2021/03/07 05:24:21;;;;;;;19.95;10.90;;;;;;;;;;5075073;28;20025;-58
2021/03/07 05:26:47;;;;;;;21.30;11.18;;;;;;;;;;5074982;28;20024;-58
2021/03/07 05:29:12;;;;;;;20.80;11.25;;;;;;;;;;5075141;28;20021;-58
2021/03/07 05:31:38;;;;;;;14.32;8.55;;;;;;;;;;5074928;28;20511;-58
2021/03/07 05:34:03;;;;;;;18.60;11.05;;;;;;;;;;5074910;28;20104;-58
2021/03/07 05:36:29;;;;;;;17.65;10.57;;;;;;;;;;5057067;28;20040;-58
2021/03/07 05:38:54;;;;;;;19.33;10.18;;;;;;;;;;5074829;28;20391;-58
2021/03/07 05:41:20;;;;;;;19.83;11.85;;;;;;;;;;5056554;28;20372;-58
2021/03/07 05:43:47;;;;;;;18.88;11.20;;;;;;;;;;5074083;28;20019;-58
2021/03/07 05:46:13;;;;;;;18.50;10.73;;;;;;;;;;5074558;28;20082;-58
2021/03/07 05:48:41;;;;;;;19.05;11.15;;;;;;;;;;5074439;28;20021;-58
2021/03/07 05:51:10;;;;;;;18.42;10.60;;;;;;;;;;5056412;28;20041;-58
2021/03/07 05:53:36;;;;;;;15.55;9.52;;;;;;;;;;5074372;28;20028;-58
2021/03/07 05:56:02;;;;;;;14.27;9.50;;;;;;;;;;5074429;28;20035;-59
2021/03/07 05:58:27;;;;;;;16.60;10.45;;;;;;;;;;5074342;28;20462;-58
2021/03/07 06:00:54;;;;;;;19.15;10.73;;;;;;;;;;5074109;28;20054;-58
2021/03/07 06:03:20;;;;;;;18.23;9.48;;;;;;;;;;5074277;28;20467;-58
2021/03/07 06:05:48;;;;;;;16.42;9.75;;;;;;;;;;5074154;28;20029;-59
2021/03/07 06:08:14;;;;;;;16.98;10.57;;;;;;;;;;5074152;28;20052;-58
2021/03/07 06:10:40;;;;;;;19.10;11.13;;;;;;;;;;5073709;28;20056;-58
2021/03/07 06:13:10;;;;;;;18.77;11.60;;;;;;;;;;5074140;28;20052;-58
2021/03/07 06:15:36;;;;;;;19.40;11.35;;;;;;;;;;5072723;28;20040;-58
2021/03/07 06:18:11;;;;;;;19.90;11.95;;;;;;;;;;5056088;28;20486;-58
2021/03/07 06:20:36;;;;;;;16.95;10.57;;;;;;;;;;5073866;28;20058;-58
2021/03/07 06:23:02;;;;;;;18.67;10.32;;;;;;;;;;5073847;28;20485;-58
2021/03/07 06:25:29;;;;;;;18.13;10.73;;;;;;;;;;5073776;28;20386;-58
2021/03/07 06:27:55;;;;;;;17.02;9.80;;;;;;;;;;5073937;28;20020;-58
2021/03/07 06:30:24;;;;;;;18.65;10.50;;;;;;;;;;5073725;28;20500;-58
2021/03/07 06:32:56;;;;;;;18.33;10.73;;;;;;;;;;5073877;28;20098;-58
2021/03/07 06:35:24;;;;;;;17.60;10.70;;;;;;;;;;5073710;28;20017;-58
2021/03/07 06:37:56;;;;;;;14.80;10.27;;;;;;;;;;5055648;28;20139;-58
2021/03/07 06:40:32;;;;;;;19.65;10.73;;;;;;;;;;5055593;28;20106;-58
2021/03/07 06:43:01;;;;;;;14.85;9.18;;;;;;;;;;5073538;28;20029;-58
2021/03/07 06:45:40;;;;;;;19.00;11.32;;;;;;;;;;5073465;28;20027;-58
2021/03/07 06:48:06;;;;;;;17.52;10.93;;;;;;;;;;5073406;28;20052;-58
2021/03/07 06:50:31;;;;;;;20.73;11.25;;;;;;;;;;5073022;28;20079;-58
2021/03/07 06:52:58;;;;;;;15.85;10.60;;;;;;;;;;5073405;28;20028;-58
2021/03/07 06:55:25;;;;;;;17.30;11.25;;;;;;;;;;5063927;28;20025;-58
2021/03/07 06:57:51;;;;;;;13.23;8.35;;;;;;;;;;5069238;28;20101;-58
2021/03/07 07:00:36;;;;;;;15.57;9.43;;;;;;;;;;5068473;28;20035;-58
2021/03/07 07:03:06;;;;;;;20.45;13.10;;;;;;;;;;5068583;28;20029;-58
2021/03/07 07:05:38;;;;;;;18.58;10.63;;;;;;;;;;5067932;28;20025;-57
2021/03/07 07:08:03;;;;;;;16.95;11.65;;;;;;;;;;5050411;28;20044;-57
2021/03/07 07:10:29;;;;;;;20.33;12.40;;;;;;;;;;5068222;28;20390;-57
2021/03/07 07:13:04;;;;;;;16.77;10.77;;;;;;;;;;5050443;28;20036;-57
2021/03/07 07:15:30;;;;;;;23.80;13.32;;;;;;;;;;5068303;28;20491;-57
2021/03/07 07:17:56;;;;;;;18.05;10.48;;;;;;;;;;5068649;28;20036;-57
2021/03/07 07:20:21;;;;;;;15.93;10.45;;;;;;;;;;5068563;28;20085;-58
2021/03/07 07:22:47;;;;;;;19.63;10.38;;;;;;;;;;5068548;28;20436;-57
2021/03/07 07:25:13;;;;;;;16.58;11.43;;;;;;;;;;5068302;28;20028;-57
2021/03/07 07:27:38;;;;;;;18.05;11.43;;;;;;;;;;5050238;28;20024;-58
2021/03/07 07:30:05;;;;;;;18.70;12.25;;;;;;;;;;5068672;28;20467;-58
2021/03/07 07:32:39;;;;;;;17.58;10.32;;;;;;;;;;5068413;28;20033;-58
2021/03/07 07:35:14;;;;;;;17.75;11.40;;;;;;;;;;5068000;28;20029;-57
2021/03/07 07:37:48;;;;;;;19.00;10.88;;;;;;;;;;5068340;28;20033;-57
2021/03/07 07:40:13;;;;;;;20.08;12.57;;;;;;;;;;5068518;28;20422;-58
2021/03/07 07:42:39;;;;;;;17.73;10.93;;;;;;;;;;5068407;28;20012;-58
2021/03/07 07:45:08;;;;;;;15.65;11.05;;;;;;;;;;5067878;28;20070;-58
2021/03/07 07:47:45;;;;;;;20.88;12.88;;;;;;;;;;5068328;28;20062;-58
2021/03/07 07:53:02;;;;;;;20.80;12.70;;;;;;;;;;5068089;28;20124;-58
2021/03/07 07:55:40;;;;;;;19.40;12.38;;;;;;;;;;5068241;28;20023;-58
2021/03/07 07:58:06;;;;;;;15.77;9.98;;;;;;;;;;5050384;28;20036;-57
2021/03/07 08:00:48;;;;;;;20.27;12.60;;;;;;;;;;5067910;28;20055;-58
2021/03/07 08:03:34;;;;;;;20.45;12.95;;;;;;;;;;5068168;28;20070;-58
2021/03/07 08:06:00;;;;;;;23.13;11.38;;;;;;;;;;5068505;28;20071;-58
2021/03/07 08:08:30;;;;;;;8.88;5.85;;;;;;;;;;5054001;28;20035;-58
2021/03/07 08:10:56;;;;;;;18.80;12.50;;;;;;;;;;5053745;28;20047;-58
2021/03/07 08:13:28;;;;;;;24.15;13.18;;;;;;;;;;5072154;28;20021;-64
2021/03/07 08:15:57;;;;;;;15.05;9.38;;;;;;;;;;5071624;28;20028;-64
2021/03/07 08:18:43;;;;;;;13.52;8.88;;;;;;;;;;5071647;28;20028;-65
2021/03/07 08:21:09;;;;;;;16.75;10.55;;;;;;;;;;5071630;28;20044;-64
2021/03/07 08:23:52;;;;;;;15.57;9.68;;;;;;;;;;5071830;28;20039;-65
2021/03/07 08:26:17;;;;;;;10.95;6.45;;;;;;;;;;5071340;28;20398;-64
2021/03/07 08:28:43;;;;;;;16.00;10.27;;;;;;;;;;5071835;28;20021;-65
2021/03/07 08:31:28;;;;;;;19.10;10.93;;;;;;;;;;5071672;28;20028;-64
2021/03/07 08:33:54;;;;;;;15.13;8.50;;;;;;;;;;5071581;28;20075;-64
2021/03/07 08:36:23;;;;;;;16.00;10.32;;;;;;;;;;5071150;28;20055;-64
2021/03/07 08:38:49;;;;;;;17.38;9.82;;;;;;;;;;5071641;28;20502;-64
2021/03/07 08:41:34;;;;;;;7.32;4.70;;;;;;;;;;5071655;28;20020;-65
2021/03/07 08:44:09;;;;;;;15.15;8.68;;;;;;;;;;5060651;28;20036;-64
2021/03/07 08:46:41;;;;;;;8.85;4.28;;;;;;;;;;5070983;28;20540;-65
2021/03/07 08:49:16;;;;;;;16.70;9.85;;;;;;;;;;5069650;28;20024;-65
2021/03/07 08:51:44;;;;;;;15.25;9.80;;;;;;;;;;5067443;28;20498;-65
2021/03/07 08:54:13;;;;;;;13.48;8.38;;;;;;;;;;5068402;28;20094;-65
2021/03/07 08:56:40;;;;;;;17.45;8.38;;;;;;;;;;5051529;28;20043;-65
2021/03/07 08:59:06;;;;;;;14.90;8.95;;;;;;;;;;5069872;28;20060;-65
2021/03/07 09:01:31;;;;;;;11.63;7.07;;;;;;;;;;5069819;28;20094;-65
2021/03/07 09:03:58;;;;;;;14.65;9.30;;;;;;;;;;5051587;28;20040;-65
2021/03/07 09:06:31;;;;;;;8.50;5.60;;;;;;;;;;5069700;28;20029;-65
2021/03/07 09:09:10;;;;;;;10.60;7.03;;;;;;;;;;5070812;28;20577;-65
2021/03/07 09:11:37;;;;;;;11.90;7.15;;;;;;;;;;5052855;28;20048;-65
2021/03/07 09:14:02;;;;;;;12.07;6.65;;;;;;;;;;5070947;28;20020;-65
2021/03/07 09:16:39;;;;;;;13.52;7.85;;;;;;;;;;5070223;28;20036;-65
2021/03/07 09:19:37;;;;;;;6.65;4.35;;;;;;;;;;5068128;28;20384;-65
2021/03/07 09:22:11;;;;;;;9.88;5.30;;;;;;;;;;5036269;28;20055;-65
2021/03/07 09:24:37;;;;;;;9.02;4.38;;;;;;;;;;5070288;28;20039;-65
2021/03/07 09:27:07;;;;;;;9.75;6.72;;;;;;;;;;5070157;28;20025;-65
2021/03/07 09:29:33;;;;;;;3.85;3.28;;;;;;;;;;5070565;28;20399;-65
2021/03/07 09:31:59;;;;;;;9.45;6.85;;;;;;;;;;5070427;28;20035;-64
2021/03/07 09:34:32;;;;;;;5.60;3.58;;;;;;;;;;5070142;28;20036;-66
2021/03/07 09:36:57;;;;;;;9.88;5.95;;;;;;;;;;5070067;28;20553;-66
2021/03/07 09:39:23;;;;;;;7.68;6.10;;;;;;;;;;5069930;28;20027;-65
2021/03/07 09:41:48;;;;;;;8.30;5.32;;;;;;;;;;5069895;28;20064;-65
2021/03/07 09:44:20;;;;;;;9.60;5.68;;;;;;;;;;5069825;28;20531;-65
2021/03/07 09:46:46;;;;;;;6.95;4.95;;;;;;;;;;5067860;28;20032;-65
2021/03/07 09:49:14;;;;;;;7.78;5.53;;;;;;;;;;5062800;28;20021;-57
2021/03/07 09:51:41;;;;;;;7.03;4.93;;;;;;;;;;5067807;28;20055;-58
2021/03/07 09:54:11;;;;;;;10.75;6.97;;;;;;;;;;5071201;28;20049;-58
2021/03/07 09:56:37;;;;;;;5.78;3.25;;;;;;;;;;5071804;28;20029;-57
2021/03/07 09:59:12;;;;;;;9.52;6.38;;;;;;;;;;5071576;28;20043;-57
2021/03/07 10:01:43;;;;;;;8.80;5.80;;;;;;;;;;5071401;28;20051;-58
2021/03/07 10:04:24;;;;;;;6.05;4.15;;;;;;;;;;5071602;28;20036;-57
2021/03/07 10:06:50;;;;;;;;;;;;;;;;;;5071838;28;20119;-58
2021/03/07 10:09:16;;;;;;;9.63;4.65;;;;;;;;;;5053716;28;19961;-58
2021/03/07 10:11:53;;;;;;;4.47;2.88;;;;;;;;;;5052913;28;20036;-57
2021/03/07 10:14:23;;;;;;;6.82;5.40;;;;;;;;;;5071363;28;20036;-57
2021/03/07 10:16:50;;;;;;;6.45;4.13;;;;;;;;;;5071157;28;20583;-57
2021/03/07 10:19:15;;;;;;;10.30;6.15;;;;;;;;;;5069903;28;20033;-57
2021/03/07 10:21:42;;;;;;;8.15;6.15;;;;;;;;;;5069371;28;20024;-57
2021/03/07 10:24:09;;;;;;;8.63;6.22;;;;;;;;;;5067001;28;20535;-57
2021/03/07 10:26:36;;;;;;;7.57;5.30;;;;;;;;;;5068996;28;20065;-57
2021/03/07 10:29:06;;;;;;;7.82;5.43;;;;;;;;;;5069080;28;20027;-58
2021/03/07 10:31:33;;;;;;;11.35;7.40;;;;;;;;;;5065954;28;20032;-64
2021/03/07 10:33:58;;;;;;;7.95;5.57;;;;;;;;;;5069433;28;20056;-65
2021/03/07 10:36:24;;;;;;;12.77;6.90;;;;;;;;;;5069085;28;20060;-66
2021/03/07 10:38:50;;;;;;;6.35;5.55;;;;;;;;;;5069189;28;20588;-65
2021/03/07 10:41:31;;;;;;;6.35;3.42;;;;;;;;;;5051230;28;20073;-65
2021/03/07 10:44:00;;;;;;;5.53;3.97;;;;;;;;;;5067631;28;20041;-58
2021/03/07 10:46:39;;;;;;;6.15;4.82;;;;;;;;;;5066168;28;20017;-57
2021/03/07 10:49:10;;;;;;;5.80;4.93;;;;;;;;;;5066946;28;20012;-57
2021/03/07 10:51:37;;;;;;;10.40;6.32;;;;;;;;;;5067621;28;20469;-65
2021/03/07 10:54:03;;;;;;;32.13;9.98;;;;;;;;;;5069214;28;20097;-65
2021/03/07 10:56:29;;;;;;;29.42;9.82;;;;;;;;;;5069195;28;20025;-64
2021/03/07 10:58:54;;;;;;;17.00;9.45;;;;;;;;;;5068725;28;20154;-57
2021/03/07 11:01:20;;;;;;;19.70;10.02;;;;;;;;;;5069460;28;20069;-57
2021/03/07 11:03:48;;;;;;;28.08;8.77;;;;;;;;;;5069293;28;20020;-57
2021/03/07 11:06:19;;;;;;;20.67;6.20;;;;;;;;;;5068819;28;20035;-57
2021/03/07 11:08:52;;;;;;;21.58;8.35;;;;;;;;;;5069564;28;20028;-57
2021/03/07 11:11:18;;;;;;;20.15;8.50;;;;;;;;;;5068970;28;20036;-57
2021/03/07 11:13:44;;;;;;;17.85;8.85;;;;;;;;;;5070678;28;20027;-57
2021/03/07 11:16:12;;;;;;;15.43;8.15;;;;;;;;;;5058224;28;20112;-57
2021/03/07 11:18:39;;;;;;;19.80;8.15;;;;;;;;;;5053238;28;20033;-57
2021/03/07 11:21:05;;;;;;;18.05;9.07;;;;;;;;;;5070028;28;20082;-57
2021/03/07 11:23:32;;;;;;;10.50;6.70;;;;;;;;;;5070775;28;20017;-64
2021/03/07 11:25:57;;;;;;;11.80;6.97;;;;;;;;;;5068444;28;20028;-65
2021/03/07 11:28:23;;;;;;;10.40;7.20;;;;;;;;;;5068595;28;20021;-64
2021/03/07 11:30:48;;;;;;;12.45;6.75;;;;;;;;;;5068801;28;20029;-65
2021/03/07 11:33:14;;;;;;;9.55;6.63;;;;;;;;;;5068892;28;20048;-64
2021/03/07 11:35:39;;;;;;;13.98;6.57;;;;;;;;;;5069234;28;20032;-57
2021/03/07 11:38:05;;;;;;;12.55;6.50;;;;;;;;;;5069361;28;20028;-57
2021/03/07 11:40:30;;;;;;;10.90;6.28;;;;;;;;;;5069066;28;20081;-57
2021/03/07 11:42:57;;;;;;;10.15;6.18;;;;;;;;;;5072854;28;20023;-57
2021/03/07 11:45:23;;;;;;;6.85;4.82;;;;;;;;;;5073165;28;20032;-57
2021/03/07 11:47:48;;;;;;;7.88;4.75;;;;;;;;;;5054683;28;20025;-57
2021/03/07 11:50:14;;;;;;;7.47;4.53;;;;;;;;;;5072284;28;20098;-57
2021/03/07 11:52:40;;;;;;;8.77;5.20;;;;;;;;;;5072700;28;20078;-57
2021/03/07 11:55:06;;;;;;;6.07;5.28;;;;;;;;;;5072246;28;20053;-57
2021/03/07 11:57:34;;;;;;;6.78;4.80;;;;;;;;;;5073884;28;20043;-57
2021/03/07 12:00:03;;;;;;;7.00;4.90;;;;;;;;;;5073686;28;20066;-57
2021/03/07 12:02:37;;;;;;;7.35;4.90;;;;;;;;;;5073844;28;20400;-57
2021/03/07 12:05:04;;;;;;;6.95;5.00;;;;;;;;;;5073341;28;20135;-57
2021/03/07 12:07:29;;;;;;;7.35;5.07;;;;;;;;;;5072697;28;20023;-57
2021/03/07 12:09:56;;;;;;;8.52;5.05;;;;;;;;;;5072872;28;20036;-57
2021/03/07 12:12:22;;;;;;;7.00;4.82;;;;;;;;;;5072546;28;20059;-57
2021/03/07 12:14:48;;;;;;;6.50;4.30;;;;;;;;;;5072169;28;20071;-57
2021/03/07 12:17:13;;;;;;;5.20;4.45;;;;;;;;;;5053496;28;20028;-57
2021/03/07 12:19:39;;;;;;;5.95;4.07;;;;;;;;;;5072334;28;20039;-64
2021/03/07 12:22:05;;;;;;;8.77;4.93;;;;;;;;;;5053131;28;20040;-64
2021/03/07 12:24:33;;;;;;;6.43;4.32;;;;;;;;;;5050755;28;20032;-63
2021/03/07 12:27:04;;;;;;;5.78;4.63;;;;;;;;;;5052058;28;20016;-64
2021/03/07 12:29:34;;;;;;;4.85;4.43;;;;;;;;;;5052146;28;20081;-65
2021/03/07 12:31:59;;;;;;;6.03;4.45;;;;;;;;;;5052289;28;20024;-64
2021/03/07 12:34:25;;;;;;;6.60;4.65;;;;;;;;;;5034865;28;20049;-65
2021/03/07 12:36:51;;;;;;;6.45;4.25;;;;;;;;;;5052855;28;20031;-65
2021/03/07 12:39:16;;;;;;;2.90;2.45;;;;;;;;;;5052884;28;20036;-64
2021/03/07 12:41:43;;;;;;;6.65;5.32;;;;;;;;;;5053070;28;20021;-64
2021/03/07 12:44:09;;;;;;;4.85;3.55;;;;;;;;;;5052673;28;20494;-64
2021/03/07 12:46:34;;;;;;;5.07;3.75;;;;;;;;;;5034309;28;20021;-64
2021/03/07 12:49:03;;;;;;;5.00;2.90;;;;;;;;;;5052772;28;20033;-64
2021/03/07 12:51:29;;;;;;;7.68;4.72;;;;;;;;;;5052377;28;20067;-64
2021/03/07 12:53:57;;;;;;;5.43;4.82;;;;;;;;;;5051083;28;20041;-64
2021/03/07 12:56:23;;;;;;;6.32;4.32;;;;;;;;;;5033925;28;20498;-64
2021/03/07 12:58:50;;;;;;;6.47;5.05;;;;;;;;;;5052174;28;20040;-64
2021/03/07 13:01:16;;;;;;;7.10;4.80;;;;;;;;;;5033461;28;20399;-64
2021/03/07 13:03:41;;;;;;;4.82;4.25;;;;;;;;;;5051854;28;20052;-64
2021/03/07 13:06:07;;;;;;;6.63;4.78;;;;;;;;;;5051771;28;20052;-64
2021/03/07 13:08:33;;;;;;;8.30;5.95;;;;;;;;;;5052846;28;20060;-63
2021/03/07 13:10:58;;;;;;;8.57;6.70;;;;;;;;;;5053880;28;20605;-63
2021/03/07 13:13:24;;;;;;;2.22;1.52;;;;;;;;;;5053728;28;20021;-63
2021/03/07 13:15:50;;;;;;;7.63;6.10;;;;;;;;;;5054087;28;20479;-62
2021/03/07 13:18:16;;;;;;;8.93;6.57;;;;;;;;;;5054133;28;20063;-63
2021/03/07 13:20:41;;;;;;;8.68;6.65;;;;;;;;;;5053276;28;20057;-62
2021/03/07 13:23:07;;;;;;;8.98;6.68;;;;;;;;;;5053412;28;20029;-62
2021/03/07 13:25:33;;;;;;;8.45;7.15;;;;;;;;;;5052204;28;20020;-62
2021/03/07 13:27:59;;;;;;;9.75;7.00;;;;;;;;;;5051365;28;20040;-63
2021/03/07 13:30:24;;;;;;;14.02;8.70;;;;;;;;;;5052310;28;20040;-63
2021/03/07 13:32:50;;;;;;;12.45;8.85;;;;;;;;;;5052043;28;20028;-63
2021/03/07 13:35:15;;;;;;;5.95;4.88;;;;;;;;;;5051331;28;20404;-57
2021/03/07 13:37:41;;;;;;;11.38;7.78;;;;;;;;;;5051257;28;20029;-64
2021/03/07 13:40:08;;;;;;;9.00;7.53;;;;;;;;;;5033117;28;20471;-65
2021/03/07 13:42:34;;;;;;;8.65;7.50;;;;;;;;;;5032457;28;20510;-64
2021/03/07 13:44:59;;;;;;;8.85;6.95;;;;;;;;;;5050742;28;20013;-64
2021/03/07 13:47:25;;;;;;;10.63;7.30;;;;;;;;;;5050708;28;20036;-63
2021/03/07 13:49:50;;;;;;;9.65;6.85;;;;;;;;;;5051032;28;20028;-64
2021/03/07 13:52:16;;;;;;;7.68;6.93;;;;;;;;;;5051264;28;20037;-65
2021/03/07 13:54:42;;;;;;;8.05;6.03;;;;;;;;;;5051135;28;20039;-65
2021/03/07 13:57:08;;;;;;;9.68;5.68;;;;;;;;;;5051398;28;20036;-64
2021/03/07 13:59:35;;;;;;;5.88;5.28;;;;;;;;;;5051402;28;20025;-64
2021/03/07 14:02:00;;;;;;;7.72;5.40;;;;;;;;;;5051502;28;20025;-64
2021/03/07 14:04:26;;;;;;;8.30;5.97;;;;;;;;;;5050931;28;20027;-64
2021/03/07 14:06:52;;;;;;;5.70;4.47;;;;;;;;;;5051289;28;20094;-64
2021/03/07 14:09:18;;;;;;;5.43;4.50;;;;;;;;;;5051292;28;20025;-64
2021/03/07 14:11:44;;;;;;;5.97;5.38;;;;;;;;;;5051237;28;20115;-64
2021/03/07 14:14:10;;;;;;;6.30;5.10;;;;;;;;;;5051162;28;20534;-64
2021/03/07 14:16:36;;;;;;;5.60;5.00;;;;;;;;;;5050791;28;20712;-64
2021/03/07 14:19:01;;;;;;;6.13;4.72;;;;;;;;;;5051250;28;20021;-58
2021/03/07 14:21:27;;;;;;;4.95;4.45;;;;;;;;;;5050530;28;20056;-58
2021/03/07 14:23:52;;;;;;;5.72;4.15;;;;;;;;;;5051263;28;20466;-58
2021/03/07 14:26:18;;;;;;;6.80;4.68;;;;;;;;;;5050516;28;20036;-58
2021/03/07 14:28:43;;;;;;;6.85;5.05;;;;;;;;;;5050632;28;20108;-58
2021/03/07 14:31:09;;;;;;;5.72;4.25;;;;;;;;;;5051083;28;20033;-58